Time;durP1;ratioP1;P1;durP2;ratioP2;P2;SDS_P1;SDS_P2;PMS_P1;PMS_P2;Temp;Humidity;BMP_temperature;BMP_pressure;BME280_temperature;BME280_humidity;BME280_pressure;Samples;Min_cycle;Max_cycle;Signal;HPM_P1;HPM_P2
2023/09/15 00:01:14;;;;;;;5.93;2.63;;;12.50;99.90;;;;;;5123133;27;20042;-63
2023/09/15 00:03:40;;;;;;;5.88;2.45;;;12.50;99.90;;;;;;5120756;27;20050;-64
2023/09/15 00:06:06;;;;;;;6.22;2.65;;;12.50;99.90;;;;;;5122902;27;20102;-63
2023/09/15 00:08:31;;;;;;;6.60;3.13;;;12.40;99.90;;;;;;5120403;27;20035;-63
2023/09/15 00:10:57;;;;;;;5.38;2.95;;;12.40;99.90;;;;;;5119468;27;20123;-63
2023/09/15 00:13:23;;;;;;;6.38;2.78;;;12.40;99.90;;;;;;5105765;27;20421;-63
2023/09/15 00:15:50;;;;;;;6.60;2.80;;;12.40;99.90;;;;;;5140639;27;20516;-63
2023/09/15 00:18:18;;;;;;;6.05;3.00;;;12.40;99.90;;;;;;5124699;27;20041;-64
2023/09/15 00:20:44;;;;;;;7.05;2.75;;;12.40;99.90;;;;;;5103799;27;20042;-63
2023/09/15 00:23:10;;;;;;;5.97;3.00;;;12.40;99.90;;;;;;5102076;27;20035;-64
2023/09/15 00:25:36;;;;;;;7.97;3.22;;;12.40;99.90;;;;;;5122102;27;20073;-62
2023/09/15 00:28:03;;;;;;;5.10;2.72;;;12.40;99.90;;;;;;5122617;27;20043;-65
2023/09/15 00:30:29;;;;;;;7.72;2.78;;;12.40;99.90;;;;;;5122643;27;20035;-63
2023/09/15 00:32:56;;;;;;;6.65;2.97;;;12.40;99.90;;;;;;5128524;27;20496;-62
2023/09/15 00:35:24;;;;;;;5.97;2.97;;;12.40;99.90;;;;;;5144957;27;20042;-64
2023/09/15 00:37:51;;;;;;;4.90;2.80;;;12.40;99.90;;;;;;5108017;27;20058;-63
2023/09/15 00:40:19;;;;;;;4.93;2.58;;;12.40;99.90;;;;;;5117600;27;20488;-64
2023/09/15 00:42:47;;;;;;;4.28;2.72;;;12.30;99.90;;;;;;5121180;28;20054;-65
2023/09/15 00:45:14;;;;;;;7.75;2.83;;;12.30;99.90;;;;;;5118229;28;20051;-62
2023/09/15 00:47:46;;;;;;;6.30;2.78;;;12.30;99.90;;;;;;5117922;28;20055;-64
2023/09/15 00:50:14;;;;;;;5.18;3.00;;;12.30;99.90;;;;;;5096511;28;20044;-61
2023/09/15 00:52:43;;;;;;;8.88;2.78;;;12.30;99.90;;;;;;5119551;28;20039;-61
2023/09/15 00:55:10;;;;;;;6.22;2.80;;;12.20;99.90;;;;;;5117332;28;20047;-65
2023/09/15 00:57:39;;;;;;;6.20;3.00;;;12.30;99.90;;;;;;5118777;28;20047;-63
2023/09/15 01:00:12;;;;;;;5.35;3.03;;;12.20;99.90;;;;;;5117592;28;20585;-64
2023/09/15 01:02:44;;;;;;;4.50;2.67;;;12.20;99.90;;;;;;5116763;28;20054;-62
2023/09/15 01:05:12;;;;;;;5.60;2.80;;;12.20;99.90;;;;;;5118895;28;20039;-64
2023/09/15 01:07:38;;;;;;;6.30;2.88;;;12.20;99.90;;;;;;5119569;28;20119;-64
2023/09/15 01:10:07;;;;;;;7.30;2.65;;;12.20;99.90;;;;;;5119091;28;20056;-64
2023/09/15 01:12:33;;;;;;;4.20;2.80;;;12.20;99.90;;;;;;5119334;28;20035;-63
2023/09/15 01:15:03;;;;;;;6.55;3.00;;;12.20;99.90;;;;;;5120124;28;20045;-62
2023/09/15 01:17:42;;;;;;;6.47;3.00;;;12.20;99.90;;;;;;5110198;27;20039;-62
2023/09/15 01:20:43;;;;;;;8.35;2.60;;;12.20;99.90;;;;;;5110375;28;20130;-63
2023/09/15 01:23:15;;;;;;;6.60;2.92;;;12.10;99.90;;;;;;5118880;28;20035;-63
2023/09/15 01:26:10;;;;;;;6.90;3.03;;;12.10;99.90;;;;;;5117773;28;20105;-65
2023/09/15 01:28:54;;;;;;;5.40;3.20;;;12.10;99.90;;;;;;5119586;28;20050;-64
2023/09/15 01:31:20;;;;;;;5.75;2.92;;;12.10;99.90;;;;;;5118168;28;20046;-62
2023/09/15 01:33:46;;;;;;;4.80;3.38;;;12.10;99.90;;;;;;5119022;28;20047;-64
2023/09/15 01:36:12;;;;;;;5.53;3.17;;;12.00;99.90;;;;;;5117918;28;20039;-63
2023/09/15 01:38:37;;;;;;;6.03;2.88;;;12.00;99.90;;;;;;5127604;27;20042;-65
2023/09/15 01:41:04;;;;;;;6.53;3.03;;;12.00;99.90;;;;;;5106226;27;20384;-65
2023/09/15 01:43:29;;;;;;;6.95;3.58;;;12.00;99.90;;;;;;5111654;28;20100;-63
2023/09/15 01:45:55;;;;;;;4.63;3.03;;;12.00;99.90;;;;;;5114147;28;20420;-62
2023/09/15 01:48:23;;;;;;;6.60;3.10;;;12.00;99.90;;;;;;5109135;28;20035;-63
2023/09/15 01:50:50;;;;;;;7.78;3.50;;;11.90;99.90;;;;;;5108820;27;20078;-63
2023/09/15 01:53:16;;;;;;;5.45;3.00;;;11.90;99.90;;;;;;5106888;27;20096;-64
2023/09/15 01:55:43;;;;;;;6.82;3.55;;;11.90;99.90;;;;;;5109471;28;20047;-63
2023/09/15 01:58:09;;;;;;;6.78;3.30;;;11.80;99.90;;;;;;5105992;27;20028;-63
2023/09/15 02:00:36;;;;;;;6.63;3.28;;;11.80;99.90;;;;;;5106598;27;20187;-65
2023/09/15 02:03:03;;;;;;;6.05;3.30;;;11.80;99.90;;;;;;5100730;27;20479;-62
2023/09/15 02:05:29;;;;;;;6.78;3.40;;;11.80;99.90;;;;;;5106255;28;20745;-63
2023/09/15 02:07:55;;;;;;;6.90;3.42;;;11.70;99.90;;;;;;5096648;27;20044;-65
2023/09/15 02:10:21;;;;;;;5.45;3.30;;;11.70;99.90;;;;;;5096730;27;20130;-63
2023/09/15 02:12:47;;;;;;;4.72;3.10;;;11.70;99.90;;;;;;5100734;28;20114;-63
2023/09/15 02:15:12;;;;;;;6.57;3.17;;;11.70;99.90;;;;;;5099675;27;20045;-63
2023/09/15 02:17:38;;;;;;;6.32;3.42;;;11.70;99.90;;;;;;5105067;28;20046;-64
2023/09/15 02:20:22;;;;;;;8.55;3.45;;;11.60;99.90;;;;;;5096890;27;20047;-63
2023/09/15 02:22:48;;;;;;;7.13;3.45;;;11.60;99.90;;;;;;5099129;28;20051;-63
2023/09/15 02:25:14;;;;;;;5.95;3.30;;;11.60;99.90;;;;;;5099810;28;20043;-64
2023/09/15 02:27:39;;;;;;;6.60;3.30;;;11.60;99.90;;;;;;5102485;28;20040;-64
2023/09/15 02:30:06;;;;;;;4.05;3.10;;;11.60;99.90;;;;;;5100972;28;20040;-62
2023/09/15 02:32:32;;;;;;;8.05;3.50;;;11.50;99.90;;;;;;5106326;28;20087;-63
2023/09/15 02:34:57;;;;;;;5.70;3.30;;;11.50;99.90;;;;;;5093703;28;20494;-64
2023/09/15 02:37:23;;;;;;;9.20;3.78;;;11.50;99.90;;;;;;5096839;27;20110;-62
2023/09/15 02:39:49;;;;;;;9.02;3.70;;;11.50;99.90;;;;;;5105706;27;20047;-66
2023/09/15 02:42:14;;;;;;;6.25;3.22;;;11.50;99.90;;;;;;5102912;27;20059;-64
2023/09/15 02:44:42;;;;;;;7.90;3.72;;;11.40;99.90;;;;;;5104030;27;20592;-63
2023/09/15 02:47:08;;;;;;;6.35;3.40;;;11.50;99.90;;;;;;5120521;27;20069;-64
2023/09/15 02:49:33;;;;;;;5.07;3.47;;;11.40;99.90;;;;;;5118540;27;20047;-63
2023/09/15 02:52:01;;;;;;;5.88;3.30;;;11.40;99.90;;;;;;5114173;27;21728;-64
2023/09/15 02:54:27;;;;;;;7.63;3.50;;;11.40;99.90;;;;;;5128831;27;20050;-63
2023/09/15 02:56:53;;;;;;;7.65;3.63;;;11.40;99.90;;;;;;5125989;27;20051;-65
2023/09/15 02:59:19;;;;;;;5.22;3.47;;;11.30;99.90;;;;;;5112351;28;20031;-64
2023/09/15 03:01:44;;;;;;;5.63;3.60;;;11.30;99.90;;;;;;5111571;27;20085;-64
2023/09/15 03:04:10;;;;;;;6.95;3.53;;;11.30;99.90;;;;;;5124354;27;20389;-64
2023/09/15 03:06:37;;;;;;;6.55;3.42;;;11.30;99.90;;;;;;5131530;27;20049;-64
2023/09/15 03:09:04;;;;;;;8.90;3.50;;;11.30;99.90;;;;;;5122848;27;20181;-63
2023/09/15 03:11:30;;;;;;;8.00;3.53;;;11.30;99.90;;;;;;5118457;27;20069;-63
2023/09/15 03:13:56;;;;;;;6.88;3.42;;;11.20;99.90;;;;;;5119915;27;20548;-63
2023/09/15 03:16:23;;;;;;;7.30;3.63;;;11.20;99.90;;;;;;5131619;27;20042;-63
2023/09/15 03:18:49;;;;;;;5.88;3.25;;;11.20;99.90;;;;;;5102583;28;20047;-62
2023/09/15 03:21:15;;;;;;;6.43;3.50;;;11.20;99.90;;;;;;5123514;27;20035;-64
2023/09/15 03:23:40;;;;;;;10.32;3.80;;;11.20;99.90;;;;;;5124807;27;20035;-63
2023/09/15 03:26:06;;;;;;;7.65;3.40;;;11.20;99.90;;;;;;5125707;27;20455;-63
2023/09/15 03:28:36;;;;;;;5.47;3.60;;;11.20;99.90;;;;;;5127910;27;20043;-64
2023/09/15 03:31:03;;;;;;;10.52;3.78;;;11.20;99.90;;;;;;5113634;27;20054;-63
2023/09/15 03:33:30;;;;;;;6.95;3.58;;;11.20;99.90;;;;;;5114289;27;20119;-62
2023/09/15 03:36:00;;;;;;;5.32;3.38;;;11.10;99.90;;;;;;5114121;27;20118;-63
2023/09/15 03:38:25;;;;;;;5.40;3.67;;;11.10;99.90;;;;;;5115393;27;20479;-63
2023/09/15 03:40:51;;;;;;;6.50;3.40;;;11.20;99.90;;;;;;5116651;27;20078;-63
2023/09/15 03:43:17;;;;;;;4.97;3.38;;;11.10;99.90;;;;;;5115852;27;20035;-63
2023/09/15 03:45:44;;;;;;;10.38;3.75;;;11.10;99.90;;;;;;5111567;27;20039;-64
2023/09/15 03:48:09;;;;;;;6.55;3.30;;;11.10;99.90;;;;;;5112233;27;20127;-64
2023/09/15 03:50:35;;;;;;;7.00;3.70;;;11.10;99.90;;;;;;5107261;27;20125;-64
2023/09/15 03:53:02;;;;;;;7.25;3.65;;;11.00;99.90;;;;;;5122781;27;20490;-63
2023/09/15 03:55:28;;;;;;;5.22;3.70;;;11.00;99.90;;;;;;5128418;27;20122;-63
2023/09/15 03:57:54;;;;;;;9.60;3.72;;;11.00;99.90;;;;;;5118150;27;20119;-65
2023/09/15 04:00:21;;;;;;;5.90;3.65;;;11.00;99.90;;;;;;5099008;27;20138;-62
2023/09/15 04:02:48;;;;;;;8.95;3.92;;;11.00;99.90;;;;;;5114849;27;20050;-64
2023/09/15 04:05:15;;;;;;;5.80;4.20;;;10.90;99.90;;;;;;5119561;27;20122;-63
2023/09/15 04:07:41;;;;;;;7.30;3.50;;;10.90;99.90;;;;;;5131317;27;20134;-62
2023/09/15 04:10:07;;;;;;;6.47;3.67;;;10.90;99.90;;;;;;5118615;27;20080;-63
2023/09/15 04:12:36;;;;;;;5.90;4.18;;;10.90;99.90;;;;;;5118987;27;20043;-66
2023/09/15 04:15:04;;;;;;;6.07;4.15;;;10.90;99.90;;;;;;5127442;27;20065;-62
2023/09/15 04:17:30;;;;;;;6.00;3.53;;;10.80;99.90;;;;;;5120961;27;20375;-64
2023/09/15 04:19:57;;;;;;;5.63;3.70;;;10.80;99.90;;;;;;5101929;28;20054;-64
2023/09/15 04:22:22;;;;;;;8.13;3.95;;;10.80;99.90;;;;;;5118626;27;20444;-64
2023/09/15 04:24:48;;;;;;;5.95;3.42;;;10.80;99.90;;;;;;5121491;27;20091;-63
2023/09/15 04:27:14;;;;;;;4.90;3.65;;;10.70;99.90;;;;;;5121737;27;20043;-63
2023/09/15 04:29:56;;;;;;;5.72;3.80;;;10.80;99.90;;;;;;5116223;27;20039;-63
2023/09/15 04:32:22;;;;;;;6.40;3.78;;;10.80;99.90;;;;;;5119536;27;20038;-64
2023/09/15 04:34:49;;;;;;;6.70;3.95;;;10.70;99.90;;;;;;5103955;28;20047;-63
2023/09/15 04:37:15;;;;;;;7.47;4.13;;;10.70;99.90;;;;;;5116770;27;20044;-63
2023/09/15 04:39:41;;;;;;;6.47;3.75;;;10.70;99.90;;;;;;5124096;27;20058;-62
2023/09/15 04:42:07;;;;;;;4.88;3.35;;;10.70;99.90;;;;;;5115433;27;20461;-62
2023/09/15 04:44:32;;;;;;;5.25;3.65;;;10.70;99.90;;;;;;5077236;28;20405;-63
2023/09/15 04:47:00;;;;;;;7.03;4.28;;;10.70;99.90;;;;;;5093235;28;20043;-62
2023/09/15 04:49:25;;;;;;;8.98;3.55;;;10.80;99.90;;;;;;5093710;28;20062;-63
2023/09/15 04:51:51;;;;;;;4.75;3.40;;;10.70;99.90;;;;;;5108483;28;20020;-63
2023/09/15 04:54:16;;;;;;;6.50;3.67;;;10.70;99.90;;;;;;5098807;28;20042;-64
2023/09/15 04:56:42;;;;;;;7.30;3.50;;;10.70;99.90;;;;;;5111956;28;20127;-62
2023/09/15 04:59:15;;;;;;;7.00;4.43;;;10.70;99.90;;;;;;5098164;28;20074;-63
2023/09/15 05:01:45;;;;;;;6.22;3.80;;;10.70;99.90;;;;;;5102859;28;20129;-62
2023/09/15 05:04:15;;;;;;;4.80;3.30;;;10.70;99.90;;;;;;5097501;28;20441;-64
2023/09/15 05:06:41;;;;;;;6.00;3.53;;;10.70;99.90;;;;;;5096393;28;20046;-64
2023/09/15 05:09:10;;;;;;;4.65;3.42;;;10.60;99.90;;;;;;5103906;28;20047;-63
2023/09/15 05:11:38;;;;;;;5.13;3.47;;;10.60;99.90;;;;;;5098008;28;20048;-63
2023/09/15 05:14:04;;;;;;;9.13;3.70;;;10.60;99.90;;;;;;5111225;28;20039;-63
2023/09/15 05:16:30;;;;;;;5.82;3.60;;;10.70;99.90;;;;;;5105011;27;20075;-63
2023/09/15 05:18:56;;;;;;;10.68;3.80;;;10.60;99.90;;;;;;5086110;28;20066;-63
2023/09/15 05:21:22;;;;;;;8.88;4.00;;;10.60;99.90;;;;;;5097579;28;20032;-62
2023/09/15 05:23:48;;;;;;;7.95;4.00;;;10.60;99.90;;;;;;5118045;27;20240;-65
2023/09/15 05:26:14;;;;;;;6.38;4.20;;;10.70;99.90;;;;;;5095269;27;20055;-65
2023/09/15 05:28:39;;;;;;;4.70;3.40;;;10.70;99.90;;;;;;5108981;28;20044;-63
2023/09/15 05:31:07;;;;;;;5.53;3.70;;;10.70;99.90;;;;;;5107708;27;20036;-65
2023/09/15 05:33:33;;;;;;;6.95;3.90;;;10.70;99.90;;;;;;5100953;28;20047;-63
2023/09/15 05:35:58;;;;;;;8.05;3.70;;;10.70;99.90;;;;;;5120957;27;20047;-63
2023/09/15 05:38:24;;;;;;;8.10;3.78;;;10.80;99.90;;;;;;5105790;27;20068;-63
2023/09/15 05:40:50;;;;;;;8.80;4.03;;;10.80;99.90;;;;;;5116428;27;20055;-62
2023/09/15 05:43:17;;;;;;;6.70;4.13;;;10.80;99.90;;;;;;5124423;27;20035;-64
2023/09/15 05:45:44;;;;;;;7.18;4.07;;;10.80;99.90;;;;;;5117257;27;20038;-63
2023/09/15 05:48:18;;;;;;;7.70;3.90;;;10.80;99.90;;;;;;5135274;27;20049;-64
2023/09/15 05:50:46;;;;;;;6.85;3.75;;;10.90;99.90;;;;;;5125578;27;20038;-63
2023/09/15 05:53:12;;;;;;;6.90;4.45;;;10.90;99.90;;;;;;5130329;27;20038;-63
2023/09/15 05:55:37;;;;;;;6.60;4.18;;;10.90;99.90;;;;;;5116831;27;20553;-63
2023/09/15 05:58:03;;;;;;;10.15;3.80;;;10.90;99.90;;;;;;5117232;27;20081;-63
2023/09/15 06:00:29;;;;;;;6.63;4.45;;;10.90;99.90;;;;;;5125025;27;20046;-63
2023/09/15 06:02:54;;;;;;;6.15;3.70;;;10.90;99.90;;;;;;5131368;27;20038;-62
2023/09/15 06:05:22;;;;;;;5.22;3.92;;;11.00;99.90;;;;;;5120714;27;20066;-64
2023/09/15 06:07:54;;;;;;;6.07;3.45;;;11.00;99.90;;;;;;5115537;27;20084;-63
2023/09/15 06:10:20;;;;;;;10.23;3.90;;;11.10;99.90;;;;;;5115797;27;20173;-62
2023/09/15 06:12:49;;;;;;;7.85;3.83;;;11.10;99.90;;;;;;5134677;27;20034;-65
2023/09/15 06:15:15;;;;;;;7.80;3.97;;;11.20;99.90;;;;;;5122599;27;20039;-63
2023/09/15 06:17:41;;;;;;;6.47;3.85;;;11.20;99.90;;;;;;5114722;27;20042;-64
2023/09/15 06:20:07;;;;;;;7.75;3.88;;;11.30;99.90;;;;;;5120650;27;20038;-62
2023/09/15 06:22:33;;;;;;;7.25;4.05;;;11.40;99.90;;;;;;5135451;27;20041;-64
2023/09/15 06:24:59;;;;;;;9.43;4.13;;;11.40;99.90;;;;;;5121494;27;20047;-64
2023/09/15 06:27:25;;;;;;;5.57;3.75;;;11.50;99.90;;;;;;5125682;27;20052;-64
2023/09/15 06:29:53;;;;;;;7.05;4.20;;;11.60;99.90;;;;;;5120386;27;20552;-65
2023/09/15 06:32:20;;;;;;;8.23;4.75;;;11.70;99.90;;;;;;5118412;27;20039;-63
2023/09/15 06:34:45;;;;;;;4.90;3.50;;;11.80;99.90;;;;;;5125913;27;21747;-64
2023/09/15 06:37:11;;;;;;;6.90;3.75;;;11.90;99.90;;;;;;5119894;27;20042;-64
2023/09/15 06:39:37;;;;;;;7.28;4.00;;;12.00;99.90;;;;;;5135624;27;20126;-63
2023/09/15 06:42:08;;;;;;;5.05;3.70;;;12.10;99.90;;;;;;5129298;27;20054;-62
2023/09/15 06:44:34;;;;;;;8.63;3.97;;;12.20;99.90;;;;;;5114377;27;20043;-64
2023/09/15 06:47:00;;;;;;;7.13;4.22;;;12.40;99.90;;;;;;5126470;27;20050;-64
2023/09/15 06:49:27;;;;;;;6.57;3.80;;;12.50;99.90;;;;;;5116865;27;20054;-65
2023/09/15 06:51:53;;;;;;;6.45;3.85;;;12.60;99.90;;;;;;5126288;27;20034;-62
2023/09/15 06:54:21;;;;;;;6.93;3.92;;;12.70;99.90;;;;;;5115783;27;20176;-62
2023/09/15 06:56:46;;;;;;;7.40;3.83;;;12.90;99.90;;;;;;5116843;27;20081;-63
2023/09/15 06:59:12;;;;;;;7.18;3.83;;;13.00;99.90;;;;;;5128080;27;20508;-64
2023/09/15 07:01:39;;;;;;;5.38;3.92;;;13.10;99.90;;;;;;5116021;27;20386;-63
2023/09/15 07:04:05;;;;;;;5.00;3.83;;;13.20;99.90;;;;;;5134308;27;20058;-64
2023/09/15 07:06:31;;;;;;;5.55;3.80;;;13.30;99.90;;;;;;5130695;27;20037;-64
2023/09/15 07:08:58;;;;;;;8.30;4.15;;;13.40;99.90;;;;;;5127308;27;20039;-63
2023/09/15 07:11:24;;;;;;;6.32;3.58;;;13.50;99.90;;;;;;5149564;27;20053;-65
2023/09/15 07:13:50;;;;;;;7.95;3.75;;;13.60;99.90;;;;;;5126913;27;20495;-64
2023/09/15 07:16:15;;;;;;;6.93;3.60;;;13.70;99.90;;;;;;5120919;27;20062;-63
2023/09/15 07:18:41;;;;;;;5.57;3.60;;;13.90;99.90;;;;;;5124592;27;20392;-63
2023/09/15 07:21:07;;;;;;;9.48;3.53;;;14.00;99.90;;;;;;5115785;27;20031;-64
2023/09/15 07:23:32;;;;;;;5.78;3.65;;;14.10;99.90;;;;;;5116769;27;20047;-65
2023/09/15 07:25:59;;;;;;;7.22;2.65;;;14.30;99.90;;;;;;5134986;27;20051;-63
2023/09/15 07:28:24;;;;;;;8.30;3.38;;;14.50;99.90;;;;;;5121951;27;20409;-64
2023/09/15 07:30:50;;;;;;;5.95;3.10;;;14.60;99.90;;;;;;5133120;27;20096;-63
2023/09/15 07:33:16;;;;;;;5.63;3.13;;;14.70;99.90;;;;;;5122013;27;20043;-62
2023/09/15 07:35:42;;;;;;;7.32;2.75;;;14.70;99.90;;;;;;5117769;27;20096;-63
2023/09/15 07:38:08;;;;;;;5.47;3.00;;;14.90;99.90;;;;;;5134045;27;20117;-64
2023/09/15 07:40:34;;;;;;;3.58;2.80;;;15.00;99.90;;;;;;5128727;27;20043;-63
2023/09/15 07:43:00;;;;;;;6.20;2.38;;;15.20;99.90;;;;;;5132242;27;20095;-63
2023/09/15 07:45:26;;;;;;;5.88;2.88;;;15.30;99.90;;;;;;5134364;27;20039;-65
2023/09/15 07:47:51;;;;;;;4.95;2.63;;;15.40;99.90;;;;;;5128970;27;20035;-64
2023/09/15 07:50:17;;;;;;;4.88;2.50;;;15.40;99.90;;;;;;5113266;27;20042;-66
2023/09/15 07:52:46;;;;;;;7.30;2.75;;;15.40;99.90;;;;;;5100291;27;20111;-64
2023/09/15 07:55:13;;;;;;;6.43;2.95;;;15.60;99.90;;;;;;5120298;27;21903;-66
2023/09/15 07:57:39;;;;;;;4.13;2.70;;;15.60;99.90;;;;;;5116510;27;20039;-62
2023/09/15 08:00:10;;;;;;;7.32;3.33;;;15.70;99.90;;;;;;5115410;27;20396;-64
2023/09/15 08:02:36;;;;;;;5.68;3.03;;;15.80;99.90;;;;;;5116916;27;20069;-64
2023/09/15 08:05:03;;;;;;;6.25;2.63;;;15.80;99.90;;;;;;5131859;27;20087;-62
2023/09/15 08:07:29;;;;;;;5.32;2.58;;;15.90;99.90;;;;;;5115199;27;20046;-64
2023/09/15 08:09:56;;;;;;;5.45;2.47;;;16.10;99.90;;;;;;5131605;27;20884;-64
2023/09/15 08:12:23;;;;;;;4.50;2.78;;;16.30;99.90;;;;;;5120897;27;20043;-65
2023/09/15 08:14:49;;;;;;;5.93;2.72;;;16.50;99.90;;;;;;5117401;27;20047;-64
2023/09/15 08:17:16;;;;;;;5.20;2.70;;;16.70;99.90;;;;;;5113017;27;20035;-66
2023/09/15 08:19:42;;;;;;;6.72;2.40;;;16.90;99.90;;;;;;5119214;27;20034;-63
2023/09/15 08:22:08;;;;;;;4.15;2.38;;;17.10;99.90;;;;;;5133220;27;20041;-62
2023/09/15 08:24:33;;;;;;;6.32;2.72;;;17.20;99.90;;;;;;5118309;27;20039;-63
2023/09/15 08:26:59;;;;;;;6.10;2.53;;;17.20;99.90;;;;;;5119188;27;20031;-63
2023/09/15 08:29:25;;;;;;;4.85;2.72;;;17.20;99.90;;;;;;5121086;27;20064;-62
2023/09/15 08:31:50;;;;;;;4.47;2.40;;;17.30;99.90;;;;;;5125247;27;20038;-62
2023/09/15 08:34:16;;;;;;;6.18;2.78;;;17.50;99.90;;;;;;5123705;27;20047;-64
2023/09/15 08:36:43;;;;;;;6.43;2.10;;;17.60;99.90;;;;;;5120013;27;20489;-64
2023/09/15 08:39:08;;;;;;;4.25;2.17;;;17.70;99.90;;;;;;5114178;27;20062;-62
2023/09/15 08:41:39;;;;;;;6.15;2.40;;;17.70;99.90;;;;;;5116994;27;20534;-64
2023/09/15 08:44:09;;;;;;;5.55;2.50;;;17.70;99.90;;;;;;5122006;27;20307;-65
2023/09/15 08:46:41;;;;;;;5.13;2.60;;;17.80;99.90;;;;;;5095625;27;20039;-64
2023/09/15 08:49:08;;;;;;;5.70;2.47;;;17.80;99.90;;;;;;5116871;27;20044;-64
2023/09/15 08:51:34;;;;;;;7.13;2.22;;;18.00;99.90;;;;;;5129624;27;20382;-63
2023/09/15 08:54:01;;;;;;;5.30;2.60;;;18.00;99.90;;;;;;5123410;27;20039;-62
2023/09/15 08:56:27;;;;;;;5.07;2.50;;;18.10;99.90;;;;;;5141435;27;20035;-64
2023/09/15 08:58:53;;;;;;;7.82;2.38;;;18.20;99.90;;;;;;5114851;27;20080;-64
2023/09/15 09:01:19;;;;;;;6.00;2.30;;;18.40;99.90;;;;;;5125630;28;20470;-63
2023/09/15 09:03:45;;;;;;;6.63;2.50;;;18.60;99.90;;;;;;5130630;27;20038;-63
2023/09/15 09:06:15;;;;;;;4.35;1.98;;;18.80;99.90;;;;;;5115973;28;20043;-66
2023/09/15 09:08:44;;;;;;;8.10;2.60;;;18.90;99.90;;;;;;5115053;27;20726;-66
2023/09/15 09:11:10;;;;;;;5.18;2.22;;;19.10;99.90;;;;;;5121090;27;20039;-63
2023/09/15 09:13:37;;;;;;;4.70;2.17;;;19.20;99.90;;;;;;5117629;27;20512;-64
2023/09/15 09:16:05;;;;;;;4.55;2.30;;;19.30;99.90;;;;;;5113828;27;20046;-64
2023/09/15 09:18:32;;;;;;;5.70;2.88;;;19.50;99.90;;;;;;5127618;27;20058;-63
2023/09/15 09:20:58;;;;;;;5.88;2.30;;;19.70;99.90;;;;;;5143057;27;20046;-62
2023/09/15 09:23:23;;;;;;;4.70;1.85;;;19.90;99.90;;;;;;5126549;28;20486;-63
2023/09/15 09:25:49;;;;;;;4.13;1.90;;;20.10;99.90;;;;;;5141414;27;20039;-63
2023/09/15 09:28:15;;;;;;;5.35;2.10;;;20.10;99.90;;;;;;5132055;27;20038;-65
2023/09/15 09:30:41;;;;;;;5.70;2.20;;;20.10;99.90;;;;;;5137631;27;20523;-62
2023/09/15 09:33:10;;;;;;;6.10;2.00;;;20.30;99.90;;;;;;5132501;27;20050;-62
2023/09/15 09:35:36;;;;;;;4.70;1.90;;;20.50;99.90;;;;;;5113446;28;20031;-63
2023/09/15 09:38:02;;;;;;;5.07;2.00;;;20.70;99.90;;;;;;5130774;27;20038;-63
2023/09/15 09:40:28;;;;;;;5.20;2.25;;;20.90;99.90;;;;;;5121444;27;20054;-64
2023/09/15 09:42:57;;;;;;;6.30;2.00;;;20.80;99.90;;;;;;5113570;27;20051;-63
2023/09/15 09:45:27;;;;;;;8.65;2.38;;;20.70;99.90;;;;;;5117503;27;20046;-64
2023/09/15 09:47:58;;;;;;;5.00;2.05;;;20.70;99.90;;;;;;5127794;27;20481;-64
2023/09/15 09:50:27;;;;;;;6.82;2.20;;;20.70;99.80;;;;;;5147281;27;20442;-64
2023/09/15 09:52:56;;;;;;;7.90;2.22;;;20.60;99.80;;;;;;5129616;27;20088;-64
2023/09/15 09:55:24;;;;;;;6.13;2.03;;;20.80;99.80;;;;;;5132518;27;20030;-65
2023/09/15 09:57:51;;;;;;;4.35;2.08;;;20.80;99.70;;;;;;5117181;28;20045;-64
2023/09/15 10:00:21;;;;;;;8.38;2.40;;;20.90;99.90;;;;;;5119086;27;20517;-65
2023/09/15 10:02:47;;;;;;;4.07;2.30;;;20.90;98.80;;;;;;5135917;27;20169;-63
2023/09/15 10:05:13;;;;;;;6.43;2.15;;;21.00;98.30;;;;;;5134562;27;20102;-64
2023/09/15 10:07:40;;;;;;;4.60;2.40;;;21.10;97.70;;;;;;5153021;27;20051;-66
2023/09/15 10:10:07;;;;;;;8.07;2.55;;;21.10;97.20;;;;;;5135806;27;20084;-65
2023/09/15 10:12:33;;;;;;;4.25;2.05;;;21.30;97.80;;;;;;5117395;27;20043;-63
2023/09/15 10:15:01;;;;;;;6.20;2.03;;;21.30;97.30;;;;;;5115674;27;20125;-64
2023/09/15 10:17:27;;;;;;;5.43;2.13;;;21.40;97.40;;;;;;5143108;27;20043;-62
2023/09/15 10:19:55;;;;;;;6.22;2.55;;;21.50;97.30;;;;;;5116903;27;20505;-64
2023/09/15 10:22:21;;;;;;;6.00;2.25;;;21.80;97.60;;;;;;5121051;27;20034;-63
2023/09/15 10:24:58;;;;;;;4.97;2.20;;;21.80;95.90;;;;;;5119543;27;20462;-63
2023/09/15 10:27:25;;;;;;;5.18;1.92;;;21.90;96.00;;;;;;5133683;27;20043;-65
2023/09/15 10:29:52;;;;;;;4.20;2.25;;;22.00;95.80;;;;;;5116673;27;20058;-65
2023/09/15 10:32:18;;;;;;;3.85;1.80;;;22.00;95.10;;;;;;5135920;27;20030;-65
2023/09/15 10:34:45;;;;;;;5.40;1.98;;;22.10;95.10;;;;;;5124557;27;20394;-64
2023/09/15 10:37:12;;;;;;;5.75;2.03;;;22.30;95.30;;;;;;5114952;27;20042;-63
2023/09/15 10:39:41;;;;;;;5.05;1.80;;;22.50;95.70;;;;;;5138525;27;20080;-64
2023/09/15 10:42:09;;;;;;;3.40;2.00;;;22.60;95.20;;;;;;5116098;27;20077;-64
2023/09/15 10:44:35;;;;;;;6.75;2.15;;;22.90;96.40;;;;;;5114576;27;20043;-65
2023/09/15 10:47:01;;;;;;;7.70;2.20;;;23.20;95.60;;;;;;5118938;27;20043;-64
2023/09/15 10:49:26;;;;;;;6.07;2.88;;;23.10;94.30;;;;;;5118281;27;20390;-64
2023/09/15 10:52:00;;;;;;;4.45;1.85;;;23.20;94.20;;;;;;5118239;27;20035;-63
2023/09/15 10:54:31;;;;;;;3.67;1.83;;;23.30;93.80;;;;;;5114788;27;20470;-65
2023/09/15 10:56:57;;;;;;;3.85;2.33;;;23.30;93.00;;;;;;5118766;27;20039;-64
2023/09/15 10:59:25;;;;;;;5.97;2.28;;;23.20;92.10;;;;;;5117019;27;20113;-65
2023/09/15 11:01:50;;;;;;;4.32;1.90;;;23.10;92.50;;;;;;5133465;27;20041;-64
2023/09/15 11:04:25;;;;;;;4.28;2.13;;;23.20;93.20;;;;;;5135521;27;20393;-65
2023/09/15 11:06:53;;;;;;;4.97;2.05;;;23.10;92.10;;;;;;5117007;27;20039;-66
2023/09/15 11:09:20;;;;;;;8.13;2.40;;;22.90;92.20;;;;;;5135839;27;20094;-65
2023/09/15 11:11:46;;;;;;;5.30;2.20;;;23.10;92.80;;;;;;5114823;27;20554;-65
2023/09/15 11:14:13;;;;;;;6.45;2.08;;;23.00;92.50;;;;;;5117134;27;20069;-67
2023/09/15 11:16:43;;;;;;;4.90;1.90;;;23.40;92.70;;;;;;5114370;27;20047;-67
2023/09/15 11:19:10;;;;;;;3.78;2.05;;;23.60;91.60;;;;;;5100346;27;20045;-65
2023/09/15 11:21:36;;;;;;;5.00;2.30;;;23.70;91.80;;;;;;5116458;27;20074;-64
2023/09/15 11:24:03;;;;;;;4.43;1.95;;;23.90;92.10;;;;;;5137150;27;20573;-65
2023/09/15 11:26:29;;;;;;;3.97;2.10;;;24.10;92.30;;;;;;5112881;27;20146;-65
2023/09/15 11:28:55;;;;;;;3.97;2.08;;;24.20;91.10;;;;;;5116075;27;20482;-66
2023/09/15 11:31:21;;;;;;;4.22;1.80;;;24.20;91.20;;;;;;5114300;27;20045;-65
2023/09/15 11:33:47;;;;;;;2.88;1.83;;;24.30;90.40;;;;;;5145163;27;20039;-66
2023/09/15 11:36:15;;;;;;;3.67;2.05;;;24.40;91.20;;;;;;5113946;27;20046;-66
2023/09/15 11:38:42;;;;;;;3.95;2.20;;;24.40;90.60;;;;;;5119972;27;20046;-64
2023/09/15 11:41:07;;;;;;;4.80;2.05;;;24.30;90.20;;;;;;5134564;27;20047;-65
2023/09/15 11:43:35;;;;;;;5.30;2.10;;;24.20;90.60;;;;;;5116037;27;20034;-63
2023/09/15 11:46:01;;;;;;;3.20;1.92;;;24.40;91.00;;;;;;5129862;27;20046;-66
2023/09/15 11:48:28;;;;;;;4.97;1.90;;;24.00;89.10;;;;;;5123857;27;20080;-66
2023/09/15 11:50:54;;;;;;;6.35;2.50;;;23.90;90.30;;;;;;5121955;27;20054;-64
2023/09/15 11:53:25;;;;;;;4.57;1.92;;;23.50;90.10;;;;;;5119919;27;20409;-66
2023/09/15 11:55:53;;;;;;;3.40;2.00;;;23.40;90.30;;;;;;5136927;27;20134;-64
2023/09/15 11:58:19;;;;;;;4.07;1.92;;;23.30;90.70;;;;;;5134206;27;20036;-65
2023/09/15 12:00:45;;;;;;;6.60;2.03;;;23.10;90.60;;;;;;5113248;27;20047;-66
2023/09/15 12:03:11;;;;;;;4.38;2.17;;;23.00;91.00;;;;;;5112610;27;20049;-66
2023/09/15 12:05:37;;;;;;;6.15;2.17;;;22.80;90.80;;;;;;5135163;27;20160;-65
2023/09/15 12:08:03;;;;;;;7.78;2.28;;;22.70;91.20;;;;;;5113401;27;20068;-65
2023/09/15 12:10:29;;;;;;;5.30;2.10;;;22.50;91.20;;;;;;5131288;27;20035;-66
2023/09/15 12:12:58;;;;;;;4.90;2.40;;;22.50;91.30;;;;;;5139706;27;20041;-65
2023/09/15 12:15:26;;;;;;;12.15;2.65;;;22.50;92.10;;;;;;5130681;27;20119;-66
2023/09/15 12:17:52;;;;;;;4.72;1.95;;;22.40;91.60;;;;;;5120114;27;20070;-66
2023/09/15 12:20:24;;;;;;;5.22;2.38;;;22.30;92.10;;;;;;5116160;27;20035;-66
2023/09/15 12:22:51;;;;;;;;;;;22.30;92.00;;;;;;5130332;27;20079;-64
2023/09/15 12:25:17;;;;;;;4.63;2.08;;;22.10;92.20;;;;;;5124614;27;19919;-64
2023/09/15 12:27:43;;;;;;;5.97;1.90;;;22.10;92.40;;;;;;5113072;27;20062;-65
2023/09/15 12:30:14;;;;;;;5.50;2.20;;;22.10;91.70;;;;;;5114307;27;20039;-68
2023/09/15 12:32:39;;;;;;;6.55;2.28;;;22.00;91.90;;;;;;5140375;27;20034;-64
2023/09/15 12:35:11;;;;;;;3.58;1.63;;;22.00;92.10;;;;;;5109484;27;20047;-64
2023/09/15 12:37:41;;;;;;;3.75;1.70;;;21.90;92.00;;;;;;5116444;27;20430;-65
2023/09/15 12:40:07;;;;;;;5.65;1.83;;;21.90;92.60;;;;;;5133511;27;20067;-67
2023/09/15 12:42:33;;;;;;;3.75;2.03;;;21.90;92.60;;;;;;5119325;27;20056;-65
2023/09/15 12:44:59;;;;;;;4.28;2.00;;;21.90;92.90;;;;;;5128822;27;20044;-64
2023/09/15 12:47:24;;;;;;;4.63;1.85;;;21.90;92.50;;;;;;5120924;28;20068;-66